Time;durP1;ratioP1;P1;durP2;ratioP2;P2;SDS_P1;SDS_P2;PMS_P1;PMS_P2;Temp;Humidity;BMP_temperature;BMP_pressure;BME280_temperature;BME280_humidity;BME280_pressure;Samples;Min_cycle;Max_cycle;Signal;HPM_P1;HPM_P2
2021/05/17 00:01:32;;;;;;;1.20;1.10;;;;;;;13.46;81.00;98094.34;5055876;28;20663;-80
2021/05/17 00:04:03;;;;;;;1.40;1.30;;;;;;;13.54;81.11;98102.66;5036846;28;20228;-87
2021/05/17 00:06:31;;;;;;;1.80;1.33;;;;;;;13.52;81.19;98096.75;5052002;28;20525;-81
2021/05/17 00:08:58;;;;;;;1.57;1.10;;;;;;;13.57;81.28;98102.13;5055733;28;20224;-83
2021/05/17 00:11:25;;;;;;;1.20;1.10;;;;;;;13.54;81.25;98088.38;5055846;28;20281;-85
2021/05/17 00:13:52;;;;;;;1.40;1.30;;;;;;;13.52;81.36;98075.22;5072220;28;20244;-80
2021/05/17 00:16:19;;;;;;;2.33;1.30;;;;;;;13.56;81.37;98081.66;5071903;28;20225;-87
2021/05/17 00:18:46;;;;;;;1.47;1.30;;;;;;;13.59;81.20;98081.09;5072396;28;20321;-85
2021/05/17 00:21:13;;;;;;;1.53;1.27;;;;;;;13.56;81.24;98072.78;5039170;28;20231;-82
2021/05/17 00:23:40;;;;;;;1.20;1.10;;;;;;;13.54;81.01;98061.47;5039016;28;20236;-82
2021/05/17 00:26:08;;;;;;;1.40;1.30;;;;;;;13.61;81.41;98084.34;5034288;28;20236;-81
2021/05/17 00:28:34;;;;;;;1.40;1.30;;;;;;;13.63;81.08;98084.03;5015744;28;20232;-86
2021/05/17 00:31:02;;;;;;;1.53;1.30;;;;;;;13.57;81.30;98083.28;5032034;28;20283;-82
2021/05/17 00:33:29;;;;;;;2.37;1.20;;;;;;;13.58;81.45;98092.13;5015472;28;20240;-84
2021/05/17 00:35:56;;;;;;;1.10;1.00;;;;;;;13.55;80.92;98090.00;5035203;28;20232;-80
2021/05/17 00:38:23;;;;;;;1.57;1.20;;;;;;;13.52;81.17;98099.44;5034637;28;20232;-79
2021/05/17 00:40:50;;;;;;;1.10;1.00;;;;;;;13.64;80.24;98105.31;5023956;28;20525;-87
2021/05/17 00:43:19;;;;;;;1.10;1.00;;;;;;;13.53;80.79;98108.31;5034747;28;20639;-85
2021/05/17 00:45:46;;;;;;;2.80;1.03;;;;;;;13.60;80.57;98112.31;5051372;28;20267;-80
2021/05/17 00:48:14;;;;;;;3.20;1.07;;;;;;;13.50;80.69;98104.28;5051154;28;20288;-82
2021/05/17 00:50:41;;;;;;;1.93;0.90;;;;;;;13.47;81.24;98120.19;5022740;28;20315;-80
2021/05/17 00:53:07;;;;;;;1.20;1.10;;;;;;;13.51;80.84;98119.34;5015042;28;20230;-79
2021/05/17 00:55:35;;;;;;;2.27;1.00;;;;;;;13.53;80.26;98111.03;5025717;28;20221;-82
2021/05/17 00:58:02;;;;;;;3.93;1.20;;;;;;;13.41;81.29;98118.56;5018002;28;20233;-80
2021/05/17 01:00:31;;;;;;;2.93;1.20;;;;;;;13.54;80.22;98118.78;5025636;28;20287;-83
2021/05/17 01:03:00;;;;;;;1.87;1.10;;;;;;;13.30;81.49;98101.66;4999339;28;20354;-81
2021/05/17 01:05:51;;;;;;;2.83;1.10;;;;;;;13.29;82.45;98112.72;5002979;28;20233;-80
2021/05/17 01:08:50;;;;;;;1.60;1.10;;;;;;;13.13;83.39;98107.34;5034298;28;20308;-86
2021/05/17 01:11:19;;;;;;;2.47;1.00;;;;;;;13.03;84.41;98098.47;4997304;28;20289;-88
2021/05/17 01:13:46;;;;;;;1.27;0.90;;;;;;;12.92;84.49;98099.59;5031110;28;20240;-86
2021/05/17 01:16:13;;;;;;;2.03;1.00;;;;;;;12.97;84.96;98110.34;5011673;28;20290;-88
2021/05/17 01:18:40;;;;;;;1.10;1.00;;;;;;;12.94;85.18;98100.91;5050908;28;20231;-85
2021/05/17 01:21:10;;;;;;;1.83;1.03;;;;;;;12.95;85.52;98101.72;5022478;28;20232;-80
2021/05/17 01:23:45;;;;;;;1.47;1.10;;;;;;;12.92;85.37;98103.09;5030898;28;20318;-81
2021/05/17 01:26:14;;;;;;;2.03;1.10;;;;;;;12.91;85.48;98114.91;5058159;28;20313;-85
2021/05/17 01:28:43;;;;;;;1.70;1.20;;;;;;;12.87;84.64;98111.16;5071013;28;20239;-88
2021/05/17 01:31:11;;;;;;;3.27;1.10;;;;;;;12.76;84.86;98102.28;5044196;28;20570;-87
2021/05/17 01:33:45;;;;;;;1.83;1.00;;;;;;;12.78;84.95;98102.03;5034995;28;20243;-84
2021/05/17 01:36:15;;;;;;;1.90;1.00;;;;;;;12.62;85.55;98086.97;5028074;28;20235;-88
2021/05/17 01:38:49;;;;;;;1.87;1.03;;;;;;;12.65;86.19;98098.00;5053929;28;20239;-84
2021/05/17 01:41:19;;;;;;;2.87;1.30;;;;;;;12.59;86.65;98096.41;5054514;28;20230;-84
2021/05/17 01:43:58;;;;;;;2.03;1.17;;;;;;;12.63;86.35;98102.84;5070579;28;20308;-86
2021/05/17 01:46:29;;;;;;;2.17;1.10;;;;;;;12.58;86.78;98094.78;5037978;28;20222;-86
2021/05/17 01:49:13;;;;;;;1.50;1.10;;;;;;;12.56;86.98;98096.91;5070484;28;20234;-89
2021/05/17 01:51:43;;;;;;;2.87;1.50;;;;;;;12.58;87.33;98096.66;5021221;28;20226;-84
2021/05/17 01:54:11;;;;;;;1.90;1.07;;;;;;;12.56;87.42;98090.72;5037219;28;20226;-86
2021/05/17 01:56:40;;;;;;;2.77;0.90;;;;;;;12.48;87.56;98083.22;5043138;28;20531;-87
2021/05/17 01:59:27;;;;;;;2.30;1.03;;;;;;;12.43;87.57;98070.59;5034425;28;20264;-87
2021/05/17 02:01:53;;;;;;;1.87;1.17;;;;;;;12.52;87.58;98077.03;5046698;28;20230;-85
2021/05/17 02:04:20;;;;;;;2.40;1.00;;;;;;;12.43;87.68;98070.59;5036990;28;20241;-81
2021/05/17 02:06:48;;;;;;;2.47;1.10;;;;;;;12.36;87.65;98062.81;5037408;28;20267;-81
2021/05/17 02:09:16;;;;;;;2.30;1.10;;;;;;;12.44;87.39;98074.09;5054065;28;20229;-84
2021/05/17 02:11:43;;;;;;;2.77;1.30;;;;;;;12.37;87.71;98071.66;5060810;28;20634;-84
2021/05/17 02:14:24;;;;;;;2.33;1.20;;;;;;;12.44;87.83;98087.53;5018929;28;20238;-84
2021/05/17 02:16:53;;;;;;;2.43;1.00;;;;;;;12.46;86.77;98088.06;5044189;28;20520;-80
2021/05/17 02:19:22;;;;;;;0.93;0.90;;;;;;;12.47;86.82;98095.03;5070833;28;20267;-86
2021/05/17 02:21:50;;;;;;;2.00;1.30;;;;;;;12.46;87.07;98109.56;5044507;28;20222;-82
2021/05/17 02:24:17;;;;;;;3.40;1.10;;;;;;;12.37;86.32;98090.47;5034596;28;20314;-81
2021/05/17 02:26:44;;;;;;;2.17;1.10;;;;;;;12.54;85.98;98115.19;5058508;28;20236;-81
2021/05/17 02:29:11;;;;;;;4.83;1.27;;;;;;;12.49;85.47;98117.88;5062099;28;20356;-80
2021/05/17 02:31:46;;;;;;;5.23;1.13;;;;;;;12.56;84.15;98123.78;5074893;28;20229;-80
2021/05/17 02:34:14;;;;;;;3.20;1.10;;;;;;;12.42;84.95;98128.06;5043277;28;20382;-81
2021/05/17 02:37:01;;;;;;;1.97;1.17;;;;;;;12.53;84.70;98142.31;5070925;28;20221;-80
2021/05/17 02:39:34;;;;;;;2.90;1.00;;;;;;;12.50;84.89;98138.31;5073178;23;20237;-80
2021/05/17 02:42:05;;;;;;;1.57;0.90;;;;;;;12.44;84.99;98144.75;5082157;28;20251;-80
2021/05/17 02:44:32;;;;;;;1.63;1.10;;;;;;;12.35;85.34;98131.03;5046268;28;20228;-80
2021/05/17 02:47:02;;;;;;;1.83;1.10;;;;;;;12.33;86.13;98133.16;5045919;28;20224;-80
2021/05/17 02:49:34;;;;;;;2.63;1.00;;;;;;;12.39;86.54;98149.28;5046331;28;20284;-81
2021/05/17 02:52:01;;;;;;;2.50;1.23;;;;;;;12.24;86.99;98137.47;5052068;28;20278;-84
2021/05/17 02:54:38;;;;;;;3.07;1.20;;;;;;;12.29;87.08;98142.84;5063852;28;20329;-81
2021/05/17 02:57:08;;;;;;;3.07;1.20;;;;;;;12.30;87.33;98147.13;5081412;28;20231;-84
2021/05/17 02:59:57;;;;;;;2.83;1.10;;;;;;;12.28;87.94;98146.59;5047645;28;20648;-81
2021/05/17 03:02:29;;;;;;;2.43;1.00;;;;;;;12.30;87.91;98157.88;5075116;28;20221;-84
2021/05/17 03:04:58;;;;;;;2.80;1.00;;;;;;;12.18;87.92;98143.06;5062635;28;20268;-80
2021/05/17 03:07:33;;;;;;;2.07;0.90;;;;;;;12.18;87.45;98159.19;5061450;28;20213;-80
2021/05/17 03:10:10;;;;;;;3.20;1.10;;;;;;;12.17;87.85;98158.41;5089057;28;20232;-81
2021/05/17 03:12:38;;;;;;;3.20;0.93;;;;;;;12.19;87.84;98160.81;5087668;28;20224;-80
2021/05/17 03:15:09;;;;;;;2.40;1.03;;;;;;;12.22;87.78;98157.59;5068668;28;20221;-82
2021/05/17 03:17:39;;;;;;;2.30;1.00;;;;;;;12.20;87.38;98163.22;5052023;28;20226;-81
2021/05/17 03:20:07;;;;;;;2.03;0.90;;;;;;;12.01;87.61;98151.38;5068803;28;20230;-81
2021/05/17 03:22:34;;;;;;;3.80;1.03;;;;;;;12.08;87.33;98161.88;5055853;28;20248;-81
2021/05/17 03:25:08;;;;;;;2.40;0.90;;;;;;;12.12;86.27;98161.06;5055095;28;20786;-80
2021/05/17 03:27:35;;;;;;;3.27;0.90;;;;;;;12.16;86.68;98172.88;5089065;28;20224;-80
2021/05/17 03:30:04;;;;;;;1.67;1.10;;;;;;;12.27;85.74;98150.34;5069909;28;20209;-80
2021/05/17 03:32:33;;;;;;;0.80;0.80;;;;;;;12.34;85.12;98164.34;5091245;28;20226;-80
2021/05/17 03:35:03;;;;;;;1.70;0.83;;;;;;;12.18;85.63;98151.94;5009969;28;20242;-80
2021/05/17 03:37:35;;;;;;;4.60;1.27;;;;;;;12.12;86.10;98166.44;5028636;28;20233;-80
2021/05/17 03:40:18;;;;;;;3.43;1.20;;;;;;;12.06;86.98;98159.44;5053999;23;20224;-80
2021/05/17 03:42:47;;;;;;;2.63;1.03;;;;;;;12.02;87.26;98157.53;5068591;28;20601;-80
2021/05/17 03:45:17;;;;;;;2.40;1.00;;;;;;;12.04;86.95;98160.78;5082374;23;20532;-80
2021/05/17 03:47:45;;;;;;;1.17;1.07;;;;;;;12.00;86.92;98154.31;5050146;28;20205;-79
2021/05/17 03:50:14;;;;;;;2.37;1.30;;;;;;;12.05;86.92;98149.75;5048814;28;20214;-81
2021/05/17 03:52:43;;;;;;;2.47;1.20;;;;;;;12.02;87.34;98154.84;5066616;28;20225;-80
2021/05/17 03:55:13;;;;;;;4.13;1.50;;;;;;;12.02;87.15;98160.22;5069378;28;20205;-80
2021/05/17 03:57:40;;;;;;;2.00;1.17;;;;;;;11.99;87.64;98152.72;5056426;23;20239;-80
2021/05/17 04:00:15;;;;;;;3.73;1.60;;;;;;;12.03;87.79;98157.28;5009899;28;20219;-80
2021/05/17 04:02:44;;;;;;;2.93;1.00;;;;;;;11.98;88.54;98154.59;5041579;23;20231;-79
2021/05/17 04:08:12;;;;;;;3.17;1.20;;;;;;;11.99;88.93;98164.22;5097339;23;20237;-80
2021/05/17 04:13:43;;;;;;;2.70;1.20;;;;;;;12.00;88.42;98143.56;5066617;23;20642;-80
2021/05/17 04:16:10;;;;;;;1.77;1.03;;;;;;;11.99;87.81;98144.66;5050377;28;20227;-79
2021/05/17 04:18:38;;;;;;;3.23;1.00;;;;;;;12.03;86.83;98149.25;5092697;22;20263;-79
2021/05/17 04:21:21;;;;;;;2.40;0.93;;;;;;;12.19;83.86;98156.25;5073445;28;20226;-79
2021/05/17 04:23:56;;;;;;;3.43;1.00;;;;;;;12.23;83.42;98154.63;5092504;22;20203;-79
2021/05/17 04:26:38;;;;;;;1.90;0.93;;;;;;;12.26;82.23;98156.00;5042607;22;20738;-79
2021/05/17 04:29:08;;;;;;;2.63;1.00;;;;;;;12.13;82.98;98151.91;5067334;28;20229;-79
2021/05/17 04:31:46;;;;;;;1.93;1.07;;;;;;;12.30;82.27;98159.75;5101703;22;20251;-79
2021/05/17 04:34:19;;;;;;;1.67;1.00;;;;;;;12.16;83.01;98166.72;5046565;22;20543;-79
2021/05/17 04:37:00;;;;;;;3.67;1.10;;;;;;;12.29;81.01;98158.13;5038311;23;20217;-79
2021/05/17 04:39:40;;;;;;;0.90;0.90;;;;;;;12.35;81.19;98168.63;5043953;28;20230;-79
2021/05/17 04:42:18;;;;;;;2.23;1.10;;;;;;;12.26;82.31;98183.66;5044317;28;20601;-79
2021/05/17 04:44:45;;;;;;;2.33;0.90;;;;;;;12.18;83.36;98176.09;5041889;28;20229;-79
2021/05/17 04:47:12;;;;;;;1.50;0.93;;;;;;;11.94;84.40;98161.56;5053646;22;20242;-79
2021/05/17 04:49:43;;;;;;;3.20;1.27;;;;;;;12.00;84.44;98178.47;5044376;22;20232;-79
2021/05/17 04:52:12;;;;;;;2.20;1.00;;;;;;;12.14;83.96;98196.50;4951994;28;20714;-79
2021/05/17 04:54:39;;;;;;;2.50;1.20;;;;;;;11.98;84.42;98177.94;4995688;28;20235;-79
2021/05/17 04:57:06;;;;;;;1.93;1.10;;;;;;;12.08;83.69;98188.72;4956509;28;20238;-79
2021/05/17 04:59:56;;;;;;;1.20;1.00;;;;;;;12.11;83.00;98197.03;5046067;23;20234;-79
2021/05/17 05:02:24;;;;;;;2.30;1.00;;;;;;;12.08;81.88;98173.41;5024477;28;20235;-79
2021/05/17 05:04:52;;;;;;;2.17;0.87;;;;;;;12.08;82.68;98197.56;5035136;28;20226;-79
2021/05/17 05:07:20;;;;;;;2.33;0.90;;;;;;;12.07;82.69;98193.25;5069822;23;20237;-79
2021/05/17 05:09:49;;;;;;;1.20;0.80;;;;;;;12.07;82.45;98198.63;5064382;28;20193;-79
2021/05/17 05:12:17;;;;;;;1.77;0.90;;;;;;;12.00;82.96;98199.94;5062694;28;20221;-79
2021/05/17 05:14:44;;;;;;;1.37;1.10;;;;;;;12.05;83.04;98208.81;5077223;28;20272;-80
2021/05/17 05:17:11;;;;;;;2.47;1.17;;;;;;;12.00;82.46;98213.34;5103057;28;20251;-79
2021/05/17 05:19:38;;;;;;;2.47;1.10;;;;;;;12.03;82.43;98210.97;5065837;23;20236;-79
2021/05/17 05:22:12;;;;;;;1.33;1.10;;;;;;;12.11;81.92;98217.69;5039144;28;20232;-79
2021/05/17 05:25:00;;;;;;;1.43;0.80;;;;;;;12.05;82.16;98226.78;5074572;23;20245;-79
2021/05/17 05:27:43;;;;;;;2.33;1.23;;;;;;;12.02;82.68;98232.69;5054226;22;20225;-80
2021/05/17 05:32:50;;;;;;;1.60;1.00;;;;;;;12.05;81.59;98224.91;5066504;28;20225;-80
2021/05/17 05:35:21;;;;;;;2.07;1.20;;;;;;;12.07;81.60;98232.72;5033282;28;20225;-79
2021/05/17 05:37:48;;;;;;;2.33;1.00;;;;;;;11.90;82.32;98236.41;5065338;28;20230;-81
2021/05/17 05:40:18;;;;;;;3.03;1.00;;;;;;;11.90;81.81;98235.59;5064060;28;20213;-80
2021/05/17 05:42:44;;;;;;;1.57;1.37;;;;;;;11.91;82.20;98243.38;5051584;22;20202;-80
2021/05/17 05:45:13;;;;;;;1.20;1.03;;;;;;;11.82;81.72;98228.03;5078244;28;20224;-80
2021/05/17 05:47:39;;;;;;;3.30;1.60;;;;;;;11.84;81.69;98232.09;5070024;28;20230;-81
2021/05/17 05:50:08;;;;;;;1.30;0.90;;;;;;;11.84;82.03;98239.34;5045141;28;20221;-80
2021/05/17 05:52:37;;;;;;;1.20;1.00;;;;;;;11.95;81.28;98250.91;5073894;28;20259;-80
2021/05/17 05:55:06;;;;;;;2.67;1.20;;;;;;;11.99;80.81;98246.66;5058313;28;20225;-81
2021/05/17 05:57:44;;;;;;;1.40;1.10;;;;;;;11.98;80.97;98250.41;5037103;28;20229;-81
2021/05/17 06:00:16;;;;;;;1.60;0.90;;;;;;;11.97;80.73;98246.09;5033501;28;20232;-79
2021/05/17 06:02:43;;;;;;;2.00;1.03;;;;;;;11.83;80.98;98235.84;5063705;28;20247;-81
2021/05/17 06:05:10;;;;;;;2.40;1.10;;;;;;;11.82;81.63;98244.97;5079548;28;20232;-80
2021/05/17 06:07:42;;;;;;;1.00;0.90;;;;;;;11.76;81.53;98231.75;5078680;28;20256;-80
2021/05/17 06:10:10;;;;;;;1.57;0.80;;;;;;;11.80;81.72;98236.34;5083392;28;20224;-80
2021/05/17 06:12:40;;;;;;;2.53;1.00;;;;;;;11.83;81.29;98240.41;5066118;28;20529;-80
2021/05/17 06:15:10;;;;;;;1.10;0.97;;;;;;;11.86;81.36;98248.72;5077295;28;20298;-80
2021/05/17 06:17:38;;;;;;;2.30;0.80;;;;;;;11.82;81.20;98244.97;5062013;28;20243;-80
2021/05/17 06:20:09;;;;;;;1.00;0.77;;;;;;;11.93;81.33;98245.81;5078672;28;20231;-80
2021/05/17 06:22:38;;;;;;;2.20;0.70;;;;;;;11.97;80.63;98233.50;5079576;28;20228;-80
2021/05/17 06:25:12;;;;;;;0.70;0.70;;;;;;;12.07;80.45;98244.28;5080209;28;20227;-80
2021/05/17 06:27:40;;;;;;;0.70;0.70;;;;;;;11.97;80.66;98228.13;5031379;28;20228;-80
2021/05/17 06:30:12;;;;;;;2.30;0.70;;;;;;;12.14;79.51;98244.00;5064447;28;20225;-80
2021/05/17 06:32:41;;;;;;;0.63;0.60;;;;;;;12.17;75.90;98233.56;5048141;28;20221;-80
2021/05/17 06:35:12;;;;;;;2.03;0.50;;;;;;;12.27;77.33;98246.22;5068218;28;20256;-82
2021/05/17 06:37:39;;;;;;;0.80;0.50;;;;;;;12.24;78.45;98257.47;5084423;28;20307;-80
2021/05/17 06:40:15;;;;;;;1.40;0.60;;;;;;;12.23;77.81;98248.63;5082792;28;20244;-80
2021/05/17 06:42:43;;;;;;;1.53;0.70;;;;;;;12.25;76.80;98235.75;5046458;28;20224;-81
2021/05/17 06:45:10;;;;;;;0.93;0.70;;;;;;;12.40;76.00;98245.72;5058089;28;20228;-80
2021/05/17 06:47:37;;;;;;;1.70;0.70;;;;;;;12.39;76.81;98249.47;5064701;28;20233;-80
2021/05/17 06:50:07;;;;;;;1.17;0.40;;;;;;;12.38;75.98;98244.34;5041624;28;20285;-80
2021/05/17 06:52:39;;;;;;;1.00;0.50;;;;;;;12.40;77.35;98243.03;5049642;28;20316;-80
2021/05/17 06:55:14;;;;;;;0.90;0.60;;;;;;;12.43;77.59;98247.88;5065706;28;20240;-80
2021/05/17 07:00:27;;;;;;;0.97;0.47;;;;;;;12.41;78.01;98239.25;5067834;28;20216;-80
2021/05/17 07:02:59;;;;;;;1.03;0.50;;;;;;;12.40;77.46;98251.09;5088406;28;20240;-80
2021/05/17 07:05:26;;;;;;;1.60;0.50;;;;;;;12.49;77.55;98249.50;5086333;28;20666;-80
2021/05/17 07:13:13;;;;;;;0.77;0.57;;;;;;;12.78;76.89;98242.56;5080088;28;20261;-80
2021/05/17 07:15:42;;;;;;;2.00;0.60;;;;;;;12.83;75.95;98224.84;5067275;28;20237;-80
2021/05/17 07:18:13;;;;;;;0.80;0.50;;;;;;;13.05;75.22;98242.31;5068110;28;20213;-80
2021/05/17 07:26:04;;;;;;;1.47;0.60;;;;;;;13.11;75.81;98245.84;5012932;28;20226;-80
2021/05/17 07:28:30;;;;;;;2.73;0.50;;;;;;;13.25;75.25;98246.13;5045433;28;20241;-80
2021/05/17 07:31:04;;;;;;;0.50;0.50;;;;;;;13.14;75.18;98242.63;5015103;28;20237;-80
2021/05/17 07:33:37;;;;;;;0.50;0.50;;;;;;;13.18;73.86;98247.19;5032665;28;20194;-80
2021/05/17 07:36:05;;;;;;;2.83;0.70;;;;;;;13.16;74.10;98256.59;5047223;28;20312;-79
2021/05/17 07:38:32;;;;;;;0.90;0.70;;;;;;;13.07;75.39;98253.59;5030781;28;20194;-80
2021/05/17 07:41:01;;;;;;;0.50;0.50;;;;;;;12.98;74.79;98257.91;5031619;28;20226;-81
2021/05/17 07:43:28;;;;;;;2.20;0.67;;;;;;;13.06;74.73;98261.97;5029231;28;20221;-81
2021/05/17 07:45:56;;;;;;;2.73;0.93;;;;;;;13.22;74.97;98269.78;5021714;28;20230;-80
2021/05/17 07:48:25;;;;;;;1.63;0.67;;;;;;;13.31;73.52;98269.22;5027147;28;20280;-80
2021/05/17 07:50:52;;;;;;;0.47;0.47;;;;;;;13.19;72.47;98273.00;5028076;28;20571;-80
2021/05/17 07:53:20;;;;;;;0.80;0.70;;;;;;;13.10;74.50;98260.34;5029294;28;20237;-80
2021/05/17 07:55:52;;;;;;;1.47;0.70;;;;;;;13.11;73.36;98273.53;5047295;28;20280;-81
2021/05/17 07:58:22;;;;;;;1.20;0.70;;;;;;;12.76;75.19;98251.97;5029809;28;20237;-82
2021/05/17 08:00:50;;;;;;;0.73;0.70;;;;;;;13.09;74.53;98280.22;5045706;28;20228;-81
2021/05/17 08:03:17;;;;;;;1.43;0.90;;;;;;;13.09;74.78;98282.91;5048371;28;20294;-80
2021/05/17 08:05:58;;;;;;;1.00;0.90;;;;;;;13.11;74.20;98291.56;5020835;28;20225;-80
2021/05/17 08:08:26;;;;;;;1.23;0.90;;;;;;;13.14;73.56;98275.69;5048581;28;20230;-80
2021/05/17 08:10:55;;;;;;;0.93;0.90;;;;;;;13.07;74.90;98293.13;5075306;23;20301;-81
2021/05/17 08:13:27;;;;;;;1.23;1.00;;;;;;;13.22;74.83;98302.06;5050091;28;20280;-80
2021/05/17 08:16:15;;;;;;;1.27;1.10;;;;;;;13.09;75.11;98301.75;5066762;28;20228;-80
2021/05/17 08:18:43;;;;;;;0.97;0.97;;;;;;;13.26;74.35;98302.31;5072062;22;20225;-79
2021/05/17 08:21:11;;;;;;;1.10;1.10;;;;;;;13.27;74.52;98297.75;5070534;28;20232;-80
2021/05/17 08:23:38;;;;;;;1.30;1.20;;;;;;;13.41;73.60;98296.13;5067928;22;20231;-80
2021/05/17 08:26:14;;;;;;;1.00;1.00;;;;;;;13.45;73.30;98305.28;5079094;22;20224;-80
2021/05/17 08:28:45;;;;;;;2.70;1.23;;;;;;;13.59;73.46;98309.03;5114663;22;20217;-80
2021/05/17 08:31:18;;;;;;;2.10;1.90;;;;;;;13.65;74.33;98307.94;5014666;28;20198;-79
2021/05/17 08:33:46;;;;;;;1.70;1.60;;;;;;;13.54;73.86;98292.88;5057683;22;20243;-80
2021/05/17 08:36:18;;;;;;;1.30;1.20;;;;;;;13.82;73.41;98307.66;5037036;28;20229;-80
2021/05/17 08:38:45;;;;;;;1.43;1.20;;;;;;;13.78;73.17;98304.69;5092138;22;20227;-80
2021/05/17 08:41:15;;;;;;;1.80;1.10;;;;;;;13.85;72.88;98305.25;5063045;22;20232;-80
2021/05/17 08:43:43;;;;;;;1.00;1.00;;;;;;;13.94;71.28;98306.28;5059869;22;20494;-80
2021/05/17 08:46:13;;;;;;;1.37;1.27;;;;;;;13.94;71.48;98316.25;5016616;23;20262;-80
2021/05/17 08:48:49;;;;;;;1.10;1.10;;;;;;;13.99;71.27;98317.06;5003960;28;20542;-80
2021/05/17 08:51:23;;;;;;;1.53;1.40;;;;;;;13.87;71.21;98315.72;5074811;23;20226;-79
2021/05/17 08:53:51;;;;;;;2.07;1.17;;;;;;;13.92;70.28;98315.72;5031864;23;20228;-80
2021/05/17 08:56:27;;;;;;;1.50;1.13;;;;;;;14.02;70.64;98318.38;4989006;28;20223;-80
2021/05/17 08:58:56;;;;;;;1.80;1.10;;;;;;;14.05;71.48;98312.44;5041860;23;20209;-80
2021/05/17 09:01:22;;;;;;;1.43;1.13;;;;;;;14.05;71.13;98315.13;5052051;23;20291;-80
2021/05/17 09:04:12;;;;;;;1.43;0.93;;;;;;;13.90;70.93;98299.84;5056489;22;20215;-80
2021/05/17 09:06:57;;;;;;;1.03;0.90;;;;;;;14.07;70.12;98311.09;5062280;28;20348;-80
2021/05/17 09:09:35;;;;;;;0.97;0.93;;;;;;;14.22;70.48;98321.03;5067767;28;20687;-81
2021/05/17 09:12:14;;;;;;;1.97;1.10;;;;;;;14.34;70.27;98299.94;5066023;28;20197;-80
2021/05/17 09:14:41;;;;;;;1.40;1.27;;;;;;;14.31;70.75;98297.81;5063498;28;20217;-80
2021/05/17 09:17:14;;;;;;;0.83;0.83;;;;;;;14.39;69.96;98304.53;5067537;28;20249;-80
2021/05/17 09:19:43;;;;;;;1.17;0.90;;;;;;;14.29;69.75;98302.66;5064855;28;20249;-80
2021/05/17 09:22:19;;;;;;;1.23;1.00;;;;;;;14.54;70.54;98304.47;5079546;28;20229;-80
2021/05/17 09:24:54;;;;;;;2.20;0.97;;;;;;;14.49;69.38;98299.94;5065576;28;20204;-80
2021/05/17 09:27:26;;;;;;;1.27;0.97;;;;;;;14.64;69.20;98307.13;5080694;22;20212;-80
2021/05/17 09:30:00;;;;;;;1.30;0.97;;;;;;;14.41;70.38;98310.47;5069481;28;20585;-80
2021/05/17 09:32:30;;;;;;;1.43;0.90;;;;;;;14.50;69.52;98306.13;5086371;28;20294;-80
2021/05/17 09:34:58;;;;;;;1.50;1.00;;;;;;;14.63;69.97;98310.09;5072817;22;20220;-80
2021/05/17 09:37:30;;;;;;;1.70;1.00;;;;;;;14.61;70.62;98325.72;5068142;28;20250;-80
2021/05/17 09:39:58;;;;;;;1.90;1.10;;;;;;;14.75;70.37;98314.06;5094853;22;20225;-81
2021/05/17 09:42:26;;;;;;;1.33;0.90;;;;;;;14.63;70.80;98296.63;5069504;28;20282;-81
2021/05/17 09:45:01;;;;;;;0.90;0.80;;;;;;;14.49;70.45;98301.81;5052046;28;20218;-80
2021/05/17 09:47:30;;;;;;;1.10;0.97;;;;;;;14.64;69.17;98317.09;5069426;28;20239;-80
2021/05/17 09:50:04;;;;;;;1.07;0.87;;;;;;;14.49;69.54;98307.19;5085510;28;20533;-80
2021/05/17 09:52:34;;;;;;;1.13;0.83;;;;;;;14.47;69.91;98306.66;5085217;22;20353;-80
2021/05/17 09:55:09;;;;;;;2.57;0.90;;;;;;;14.58;70.08;98302.03;5046621;28;20224;-80
2021/05/17 09:57:47;;;;;;;1.57;1.03;;;;;;;14.64;69.60;98304.44;5079199;28;20297;-81
2021/05/17 10:00:24;;;;;;;3.03;1.20;;;;;;;14.78;69.14;98310.03;5082770;28;20234;-80
2021/05/17 10:03:04;;;;;;;1.53;1.00;;;;;;;14.85;69.33;98311.31;5072407;22;20229;-81
2021/05/17 10:05:35;;;;;;;1.10;0.80;;;;;;;14.82;69.19;98302.97;5065015;28;20254;-81
2021/05/17 10:08:12;;;;;;;1.63;0.77;;;;;;;15.03;69.17;98304.44;5056581;22;20229;-81
2021/05/17 10:10:42;;;;;;;1.23;0.90;;;;;;;14.98;67.47;98297.19;5043665;28;20235;-81
2021/05/17 10:13:09;;;;;;;1.83;0.93;;;;;;;15.12;67.31;98304.66;5077228;28;20235;-80
2021/05/17 10:15:41;;;;;;;1.00;0.90;;;;;;;14.89;67.28;98284.59;5047753;28;20227;-80
2021/05/17 10:18:23;;;;;;;0.80;0.80;;;;;;;14.93;68.26;98289.13;5080044;28;20221;-83
2021/05/17 10:20:50;;;;;;;2.60;1.10;;;;;;;14.89;68.82;98293.50;5065167;28;20238;-82
2021/05/17 10:23:17;;;;;;;1.53;0.80;;;;;;;14.77;68.30;98290.34;5057673;28;20234;-84
2021/05/17 10:25:45;;;;;;;1.47;1.13;;;;;;;14.55;69.76;98295.31;5072161;22;20248;-82
2021/05/17 10:28:18;;;;;;;1.73;0.90;;;;;;;14.31;71.17;98313.19;5045003;28;20277;-80
2021/05/17 10:30:49;;;;;;;2.00;1.10;;;;;;;14.35;71.36;98315.03;5079735;22;20229;-81
2021/05/17 10:34:18;;;;;;;2.67;1.17;;;;;;;14.57;70.38;98319.28;5081733;28;20245;-80
2021/05/17 10:37:20;;;;;;;1.13;0.80;;;;;;;14.78;70.13;98307.31;5167717;22;20245;-80
2021/05/17 10:41:21;;;;;;;0.90;0.90;;;;;;;14.76;69.74;98312.97;5029205;22;20225;-81
2021/05/17 10:46:55;;;;;;;0.93;0.80;;;;;;;15.20;67.16;98310.28;5057168;28;20252;-80
2021/05/17 10:49:43;;;;;;;1.63;0.90;;;;;;;15.25;67.21;98299.47;5077123;23;20227;-82
2021/05/17 10:56:01;;;;;;;1.07;0.80;;;;;;;15.13;66.62;98299.00;5043197;28;20235;-81
2021/05/17 11:02:15;;;;;;;0.83;0.67;;;;;;;15.41;67.73;98313.63;5013215;28;20221;-86
2021/05/17 11:04:55;;;;;;;2.17;0.70;;;;;;;15.46;65.92;98302.78;5015137;28;20295;-81
2021/05/17 11:08:03;;;;;;;0.50;0.50;;;;;;;15.49;66.52;98318.41;5016044;28;20220;-81
2021/05/17 11:11:15;;;;;;;0.87;0.70;;;;;;;15.24;66.62;98318.63;5031219;23;20215;-81
2021/05/17 11:14:36;;;;;;;1.47;0.70;;;;;;;14.88;68.05;98321.53;5038366;28;20267;-81
2021/05/17 11:20:49;;;;;;;2.00;0.80;;;;;;;13.99;69.71;98310.84;5004606;28;20241;-81
2021/05/17 11:24:17;;;;;;;1.23;0.70;;;;;;;13.97;69.53;98321.09;5014877;28;20223;-81
2021/05/17 11:27:00;;;;;;;0.87;0.80;;;;;;;14.04;69.72;98327.00;5025640;23;20286;-80
2021/05/17 11:29:54;;;;;;;1.63;0.70;;;;;;;13.86;71.41;98320.28;5041489;23;20227;-81
2021/05/17 11:32:38;;;;;;;1.07;0.80;;;;;;;13.95;71.27;98323.25;5023291;28;20273;-81
2021/05/17 11:35:35;;;;;;;1.83;0.90;;;;;;;13.54;72.19;98325.97;5203728;23;20576;-82
2021/05/17 11:38:12;;;;;;;1.67;0.90;;;;;;;13.55;71.84;98338.38;5053605;28;20536;-80
2021/05/17 11:41:10;;;;;;;1.30;0.80;;;;;;;13.64;72.38;98327.88;5060692;23;20227;-81
2021/05/17 11:44:59;;;;;;;1.17;0.80;;;;;;;13.73;74.14;98338.88;5031489;23;20233;-82
2021/05/17 11:48:10;;;;;;;1.07;0.97;;;;;;;13.98;73.80;98344.25;5055674;23;20250;-80
2021/05/17 11:51:58;;;;;;;1.17;0.80;;;;;;;14.07;70.50;98339.91;5039657;23;20237;-80
2021/05/17 11:55:39;;;;;;;1.73;0.90;;;;;;;14.29;70.90;98340.38;5059304;23;20268;-80
2021/05/17 11:59:03;;;;;;;1.03;0.63;;;;;;;14.82;68.14;98346.94;5052722;23;20245;-81
2021/05/17 12:01:31;;;;;;;1.03;0.60;;;;;;;14.75;68.60;98332.13;4977071;28;20521;-83
2021/05/17 12:04:19;;;;;;;1.00;0.60;;;;;;;14.70;68.16;98327.56;5026483;28;20221;-86
2021/05/17 12:06:48;;;;;;;1.47;0.70;;;;;;;14.84;67.23;98331.28;5017308;28;20269;-83
2021/05/17 12:09:27;;;;;;;1.97;0.60;;;;;;;14.35;69.16;98338.47;5021797;28;20244;-82
2021/05/17 12:11:55;;;;;;;1.13;0.50;;;;;;;14.84;68.29;98333.97;5028331;28;20251;-86
2021/05/17 12:14:21;;;;;;;0.60;0.60;;;;;;;15.44;66.36;98334.66;5036175;28;20274;-83
2021/05/17 12:17:00;;;;;;;1.53;0.70;;;;;;;15.66;65.46;98320.72;5017332;28;20258;-85
2021/05/17 12:19:27;;;;;;;0.80;0.70;;;;;;;15.95;64.39;98321.53;4982042;28;20252;-87
2021/05/17 12:21:59;;;;;;;2.17;0.70;;;;;;;15.78;64.66;98331.94;4991079;28;20581;-83
2021/05/17 12:24:29;;;;;;;1.20;0.70;;;;;;;15.40;65.97;98320.09;5016363;28;20283;-83
2021/05/17 12:27:04;;;;;;;2.03;0.90;;;;;;;15.22;68.12;98336.97;5035443;28;20225;-86
2021/05/17 12:29:49;;;;;;;2.23;1.00;;;;;;;15.05;68.74;98340.06;5018894;28;20253;-83
2021/05/17 12:32:16;;;;;;;1.30;0.83;;;;;;;14.94;68.66;98338.50;5002265;28;20589;-85
2021/05/17 12:34:55;;;;;;;1.20;0.80;;;;;;;15.08;68.41;98346.78;5002537;28;20744;-80
2021/05/17 12:37:29;;;;;;;2.30;0.90;;;;;;;15.19;68.33;98349.13;5035215;28;20233;-80
2021/05/17 12:40:14;;;;;;;1.53;0.77;;;;;;;14.91;69.79;98356.06;5035297;28;20226;-81
2021/05/17 12:42:42;;;;;;;1.90;0.80;;;;;;;14.96;66.85;98342.53;4992364;28;20237;-85